バンダルスリブガワン の空港の天気 - METARとTAF

ブルネイ国際空港 ( WBSB / BWN ) - ブルネイ バンダルスリブガワン
飛行場実況気象(Metar)
観測時間01/23 16:00 BNT (01/23 08:00 UTC)
風向・風速北西 3m/s
視程10km以上
天気現象
少しの雲 雲底高度 460m
少しの雲 雲底高度 490m
全天の8割程度の雲 雲底高度 9140m
気温30℃
湿度70%
気圧1005hPa
METARWBSB 230800Z 32005KT 9999 FEW015 FEW016CB BKN300 30/24 Q1005 NOSIG
過去の天気等 Google飛行場航空写真 Wunderground天気予報

過去48時間のMETAR

飛行場予報(TAF)
発表時間: 1/23 13:00 BNT (1/23 05:00 UTC)
予報対象時間: 23日14時 BNT ~ 24日20時 BNT
風向・風速北 5m/s
視程10km以上
少しの雲 雲底高度 460m
少しの積乱雲 雲底高度 490m
23日16時 BNT ~ 23日18時 BNT に一時的に
視程7,000m
天気現象弱いしゅう雨
23日20時 BNT ~ 23日22時 BNT に徐々に
風向・風速南西 3m/s
全天の4割程度の雲 雲底高度 430m
少しの積乱雲 雲底高度 460m
23日22時 BNT ~ 23日24時 BNT に一時的に
視程5,000m
天気現象しゅう雨 雷雨
TAF WBSB 230500Z 2306/2412 35010KT 9999 FEW015 FEW016CB
TEMPO 2308/2310 7000 -SHRA
BECMG 2312/2314 22005KT SCT014 FEW015CB
TEMPO 2314/2316 5000 SHRA TSRA